Time;durP1;ratioP1;P1;durP2;ratioP2;P2;SDS_P1;SDS_P2;PMS_P1;PMS_P2;Temp;Humidity;BMP_temperature;BMP_pressure;BME280_temperature;BME280_humidity;BME280_pressure;Samples;Min_cycle;Max_cycle;Signal;HPM_P1;HPM_P2
2022/11/28 00:01:46;;;;;;;112.28;41.55;;;4.60;99.90;;;2.94;100.00;101733.75;5042896;28;20064;-81
2022/11/28 00:04:13;;;;;;;124.88;41.20;;;4.60;99.90;;;2.99;100.00;101733.75;5046147;28;20172;-81
2022/11/28 00:06:49;;;;;;;123.53;42.65;;;4.70;99.90;;;2.96;100.00;101734.63;5021538;28;20030;-81
2022/11/28 00:09:17;;;;;;;127.75;41.25;;;4.70;99.90;;;3.00;100.00;101733.75;5022365;28;20029;-80
2022/11/28 00:11:45;;;;;;;103.75;40.72;;;4.70;99.90;;;3.01;100.00;101724.22;5002815;28;20018;-80
2022/11/28 00:16:41;;;;;;;115.78;41.55;;;4.70;99.90;;;2.99;100.00;101729.41;5072146;22;20048;-81
2022/11/28 00:19:08;;;;;;;123.72;41.63;;;4.70;99.90;;;3.04;100.00;101716.41;5061787;28;20033;-80
2022/11/28 00:21:34;;;;;;;97.18;32.80;;;4.80;99.90;;;3.05;100.00;101725.97;5058318;28;20685;-81
2022/11/28 00:24:00;;;;;;;114.38;42.15;;;4.80;99.90;;;3.11;100.00;101728.56;5060871;28;20032;-80
2022/11/28 00:26:32;;;;;;;113.07;38.47;;;4.80;99.90;;;3.07;100.00;101722.47;5053608;28;20115;-81
2022/11/28 00:28:59;;;;;;;132.02;43.15;;;4.80;99.90;;;3.18;100.00;101721.63;5061917;28;20721;-80
2022/11/28 00:31:29;;;;;;;86.55;28.25;;;4.90;99.90;;;3.15;100.00;101719.00;5060483;28;20411;-79
2022/11/28 00:34:01;;;;;;;121.38;42.78;;;4.90;99.90;;;3.21;100.00;101719.88;5043825;28;20060;-80
2022/11/28 00:36:28;;;;;;;130.32;43.85;;;4.90;99.90;;;3.27;100.00;101713.81;5070997;23;20040;-81
2022/11/28 00:38:54;;;;;;;129.82;39.90;;;4.90;99.90;;;3.29;100.00;101714.66;5047350;28;20163;-80
2022/11/28 00:41:34;;;;;;;103.72;34.50;;;4.90;99.90;;;3.14;100.00;101707.72;5063805;28;20050;-79
2022/11/28 00:44:01;;;;;;;115.65;38.63;;;4.90;99.90;;;3.18;100.00;101706.88;5047641;28;20041;-80
2022/11/28 00:46:31;;;;;;;115.72;40.03;;;4.90;99.90;;;3.21;100.00;101701.66;5027021;28;20089;-81
2022/11/28 00:48:58;;;;;;;125.80;42.83;;;4.90;99.90;;;3.26;100.00;101702.53;5028361;28;20083;-80
2022/11/28 00:51:33;;;;;;;112.75;41.70;;;4.90;99.90;;;3.24;100.00;101705.97;5042537;28;20040;-79
2022/11/28 00:54:03;;;;;;;96.05;33.03;;;4.90;99.90;;;3.18;100.00;101704.25;5041395;28;20093;-81
2022/11/28 00:56:36;;;;;;;129.38;41.30;;;4.90;99.90;;;3.24;100.00;101705.97;5043466;28;20034;-80
2022/11/28 00:59:06;;;;;;;109.57;40.97;;;5.00;99.90;;;3.25;100.00;101699.91;5024672;28;20053;-79
2022/11/28 01:01:47;;;;;;;120.60;42.00;;;5.00;99.90;;;3.31;100.00;101694.72;5024187;28;20021;-79
2022/11/28 01:04:16;;;;;;;113.53;39.83;;;4.90;99.90;;;3.20;100.00;101692.13;5025334;28;20029;-81
2022/11/28 01:06:49;;;;;;;113.10;37.55;;;4.90;99.90;;;3.29;100.00;101693.84;5024034;28;20052;-80
2022/11/28 01:09:21;;;;;;;106.35;37.33;;;4.90;99.90;;;3.31;100.00;101693.84;5043491;28;20622;-79
2022/11/28 01:11:52;;;;;;;113.85;40.78;;;5.00;99.90;;;3.29;100.00;101697.31;5040999;28;20063;-80
2022/11/28 01:14:21;;;;;;;102.85;38.13;;;5.00;99.90;;;3.31;100.00;101688.66;5024775;28;20037;-81
2022/11/28 01:16:48;;;;;;;102.10;39.15;;;5.00;99.90;;;3.32;100.00;101693.81;5025959;28;20040;-81
2022/11/28 01:19:22;;;;;;;89.43;32.78;;;5.00;99.90;;;3.31;100.00;101686.03;5029324;28;20048;-80
2022/11/28 01:21:48;;;;;;;101.32;39.22;;;5.00;99.90;;;3.38;100.00;101685.16;5025485;28;20052;-81
2022/11/28 01:24:15;;;;;;;120.35;40.15;;;5.00;99.90;;;3.40;100.00;101676.47;5043142;28;20017;-81
2022/11/28 01:26:41;;;;;;;107.55;38.28;;;5.10;99.90;;;3.45;100.00;101677.31;5040972;28;20029;-80
2022/11/28 01:29:15;;;;;;;97.32;39.58;;;5.10;99.90;;;3.49;100.00;101679.03;5026958;28;20064;-81
2022/11/28 01:31:41;;;;;;;89.88;35.65;;;5.00;99.90;;;3.33;100.00;101677.34;5026026;28;20125;-81
2022/11/28 01:34:07;;;;;;;95.70;37.05;;;5.10;99.90;;;3.40;100.00;101673.88;5057400;28;20096;-81
2022/11/28 01:36:32;;;;;;;86.05;36.13;;;5.10;99.90;;;3.42;100.00;101669.53;5022993;28;20112;-80
2022/11/28 01:39:06;;;;;;;78.75;36.20;;;;;;;3.51;100.00;101670.38;5025301;28;20497;-81
2022/11/28 01:41:32;;;;;;;91.10;36.45;;;5.20;99.90;;;3.51;100.00;101662.56;5024729;28;20544;-79
2022/11/28 01:44:14;;;;;;;99.80;37.13;;;5.20;99.90;;;3.53;100.00;101653.88;5030705;28;20081;-81
2022/11/28 01:46:41;;;;;;;85.25;34.20;;;5.10;99.90;;;3.45;100.00;101656.47;5043767;28;20056;-79
2022/11/28 01:49:19;;;;;;;88.15;34.92;;;5.20;99.90;;;3.53;100.00;101653.00;5024155;28;20030;-81
2022/11/28 01:51:56;;;;;;;99.80;36.08;;;5.20;99.90;;;3.52;100.00;101646.94;5025677;28;20039;-81
2022/11/28 01:54:25;;;;;;;92.35;36.65;;;5.20;99.90;;;3.56;100.00;101647.78;5025261;28;20086;-81
2022/11/28 01:57:01;;;;;;;65.13;24.38;;;5.20;99.90;;;3.43;100.00;101640.00;5043765;28;20036;-80
2022/11/28 01:59:35;;;;;;;93.32;37.60;;;5.10;99.90;;;3.44;100.00;101641.75;5040470;28;20041;-81
2022/11/28 02:02:08;;;;;;;88.97;35.47;;;5.20;99.90;;;3.47;100.00;101628.69;5026846;28;20600;-80
2022/11/28 02:04:40;;;;;;;76.40;28.13;;;5.20;99.90;;;3.42;100.00;101624.41;5040476;28;20049;-81
2022/11/28 02:07:06;;;;;;;73.82;30.88;;;5.10;99.90;;;3.42;100.00;101621.78;5043905;28;20029;-81
2022/11/28 02:09:32;;;;;;;79.82;35.55;;;5.10;99.90;;;3.40;100.00;101624.41;5025992;28;20040;-80
2022/11/28 02:12:05;;;;;;;65.00;28.42;;;5.20;99.90;;;3.40;100.00;101613.97;5042880;28;20026;-81
2022/11/28 02:14:56;;;;;;;82.53;36.63;;;5.10;99.90;;;3.42;100.00;101609.63;5023792;28;20037;-81
2022/11/28 02:17:48;;;;;;;84.13;34.65;;;5.20;99.90;;;3.44;100.00;101613.09;5024184;28;20035;-80
2022/11/28 02:20:55;;;;;;;73.88;32.60;;;5.10;99.90;;;3.36;100.00;101614.84;5027876;28;20068;-81
2022/11/28 02:24:07;;;;;;;81.63;34.22;;;5.00;99.90;;;3.36;100.00;101612.25;5029979;28;20037;-80
2022/11/28 02:27:05;;;;;;;81.28;33.20;;;5.10;99.90;;;3.41;100.00;101610.53;5024917;28;20108;-80
2022/11/28 02:30:02;;;;;;;75.95;34.47;;;5.10;99.90;;;3.45;100.00;101601.81;5040642;28;20064;-78
2022/11/28 02:32:56;;;;;;;75.70;32.97;;;5.10;99.90;;;3.45;100.00;101609.63;5026431;28;20033;-82
2022/11/28 02:36:05;;;;;;;70.47;33.22;;;5.20;99.90;;;3.46;100.00;101605.28;5042124;28;20047;-80
2022/11/28 02:39:04;;;;;;;76.75;33.22;;;5.20;99.90;;;3.48;100.00;101604.41;5043214;28;20094;-81
2022/11/28 02:42:12;;;;;;;77.05;33.90;;;5.20;99.90;;;3.50;100.00;101594.00;5041465;28;20041;-79
2022/11/28 02:44:46;;;;;;;75.50;33.45;;;5.10;99.90;;;3.41;100.00;101600.09;5012693;28;20029;-81
2022/11/28 02:47:28;;;;;;;78.32;34.35;;;5.10;99.90;;;3.41;100.00;101605.31;5028550;28;20029;-80
2022/11/28 02:50:07;;;;;;;74.80;34.00;;;5.10;99.90;;;3.39;100.00;101593.16;5045352;28;20112;-79
2022/11/28 02:52:59;;;;;;;82.40;35.38;;;5.10;99.90;;;3.43;100.00;101594.88;5043807;28;20035;-79
2022/11/28 02:55:26;;;;;;;88.40;35.55;;;5.10;99.90;;;3.41;100.00;101596.63;5036782;28;20044;-82
2022/11/28 02:58:03;;;;;;;54.47;24.52;;;5.10;99.90;;;3.31;100.00;101594.94;5028964;28;20394;-81
2022/11/28 03:00:42;;;;;;;84.25;35.53;;;5.10;99.90;;;3.33;100.00;101596.66;5047716;28;20079;-80
2022/11/28 03:03:41;;;;;;;61.95;25.83;;;5.00;99.90;;;3.23;100.00;101585.38;5028709;28;20442;-81
2022/11/28 03:06:43;;;;;;;77.18;33.85;;;5.00;99.90;;;3.29;100.00;101592.31;5045772;28;20026;-80
2022/11/28 03:09:56;;;;;;;62.20;28.60;;;5.00;99.90;;;3.24;100.00;101583.63;5028870;28;20048;-81
2022/11/28 03:12:31;;;;;;;74.40;35.45;;;4.90;99.90;;;3.21;100.00;101592.31;5033858;22;20057;-83
2022/11/28 03:15:06;;;;;;;77.72;33.22;;;5.00;99.90;;;3.27;100.00;101588.84;5022190;28;20064;-83
2022/11/28 03:17:46;;;;;;;95.55;40.45;;;5.00;99.90;;;3.36;100.00;101591.44;5025485;28;20053;-82
2022/11/28 03:20:46;;;;;;;100.00;40.75;;;5.00;99.90;;;3.36;100.00;101580.16;5011385;28;20452;-79
2022/11/28 03:23:47;;;;;;;90.75;39.40;;;5.00;99.90;;;3.31;100.00;101574.97;5045755;23;20517;-80
2022/11/28 03:26:38;;;;;;;86.07;40.00;;;5.00;99.90;;;3.34;100.00;101580.16;5048875;28;20048;-80
2022/11/28 03:29:45;;;;;;;96.03;39.70;;;5.00;99.90;;;3.34;100.00;101564.53;5047704;28;20044;-82
2022/11/28 03:32:43;;;;;;;81.72;38.45;;;5.00;99.90;;;3.39;100.00;101568.00;5051229;28;20044;-81
2022/11/28 03:35:19;;;;;;;84.78;38.58;;;5.10;99.90;;;3.44;100.00;101566.25;5065569;28;20045;-80
2022/11/28 03:37:53;;;;;;;78.57;37.58;;;5.00;99.90;;;3.35;100.00;101561.06;5064730;28;20025;-80
2022/11/28 03:40:32;;;;;;;82.30;37.95;;;5.10;99.90;;;3.41;100.00;101561.06;5067215;28;20032;-82
2022/11/28 03:43:27;;;;;;;69.25;34.10;;;;;;;3.42;100.00;101565.38;5041879;28;20040;-81
2022/11/28 03:46:01;;;;;;;72.15;32.63;;;5.10;99.90;;;3.38;100.00;101563.66;5077469;28;20064;-80
2022/11/28 03:48:32;;;;;;;61.25;33.47;;;5.10;99.90;;;3.47;100.00;101561.00;5050121;28;20021;-81
2022/11/28 03:51:42;;;;;;;69.78;32.90;;;5.10;99.90;;;3.43;100.00;101566.22;5044548;28;20021;-81
2022/11/28 03:54:35;;;;;;;46.55;19.98;;;5.10;99.90;;;3.37;100.00;101563.66;5051265;23;20045;-80
2022/11/28 03:58:19;;;;;;;54.38;29.67;;;5.10;99.90;;;3.47;100.00;101565.34;5049245;28;20182;-80
2022/11/28 04:00:32;;;;;;;57.10;28.23;;;5.10;99.90;;;3.46;100.00;101556.69;5052214;28;20036;-81
2022/11/28 04:03:29;;;;;;;53.28;27.48;;;5.10;99.90;;;3.38;100.00;101561.03;5051381;28;20437;-81
2022/11/28 04:06:50;;;;;;;56.42;27.80;;;5.10;99.90;;;3.37;100.00;101554.13;5061908;28;20051;-80
2022/11/28 04:10:09;;;;;;;51.58;25.20;;;5.10;99.90;;;3.42;100.00;101552.34;5063741;28;20021;-81
2022/11/28 04:13:30;;;;;;;59.78;28.42;;;5.10;99.90;;;3.44;100.00;101555.81;5023383;23;20045;-81
2022/11/28 04:16:40;;;;;;;52.28;25.17;;;5.10;99.90;;;3.35;100.00;101548.06;5037054;28;20044;-80
2022/11/28 04:19:54;;;;;;;53.35;27.27;;;5.10;99.90;;;3.39;100.00;101549.78;5065646;28;20036;-81
2022/11/28 04:23:09;;;;;;;49.45;24.55;;;5.10;99.90;;;3.41;100.00;101545.44;4969539;28;20043;-80
2022/11/28 04:26:03;;;;;;;55.55;26.85;;;5.10;99.90;;;3.39;100.00;101546.28;4929344;28;20085;-81
2022/11/28 04:28:48;;;;;;;47.60;22.42;;;5.10;99.90;;;3.36;100.00;101547.16;4980151;28;20447;-80
2022/11/28 04:31:24;;;;;;;47.80;24.15;;;5.10;99.90;;;3.39;100.00;101538.47;4943178;28;20026;-81
2022/11/28 04:34:05;;;;;;;35.08;16.17;;;5.10;99.90;;;3.35;100.00;101529.84;5063989;23;20059;-82
2022/11/28 04:37:13;;;;;;;;;;;;;;;;;;;;;
2022/11/28 04:39:56;;;;;;;;;;;;;;;;;;;;;
2022/11/28 04:43:08;;;;;;;45.83;22.02;;;5.10;99.90;;;3.36;100.00;101528.94;5049567;28;20027;-82
2022/11/28 04:46:25;;;;;;;47.35;23.70;;;5.10;99.90;;;3.36;100.00;101509.88;5059876;28;20051;-82
2022/11/28 04:49:14;;;;;;;21.73;10.33;;;5.00;99.90;;;3.29;100.00;101509.88;5033568;28;20037;-82
2022/11/28 04:54:41;;;;;;;55.75;25.17;;;5.00;99.90;;;3.32;100.00;101505.53;5108821;22;20055;-82
2022/11/28 04:58:01;;;;;;;56.85;27.15;;;5.00;99.90;;;3.30;100.00;101502.94;5092302;28;20028;-82
2022/11/28 05:00:44;;;;;;;54.75;26.45;;;5.00;99.90;;;3.31;100.00;101496.88;5043986;28;20042;-81
2022/11/28 05:06:40;;;;;;;47.95;21.63;;;5.00;99.90;;;3.28;100.00;101504.69;5072595;28;20497;-83
2022/11/28 05:09:29;;;;;;;51.50;25.50;;;5.00;99.90;;;3.29;100.00;101504.69;5080734;28;20031;-82
2022/11/28 05:14:52;;;;;;;52.10;25.52;;;4.90;99.90;;;3.28;100.00;101504.69;5051960;28;20036;-82
2022/11/28 05:17:30;;;;;;;37.13;20.67;;;5.00;99.90;;;3.28;100.00;101502.06;5036063;28;20033;-83
2022/11/28 05:20:31;;;;;;;48.47;24.75;;;4.90;99.90;;;3.18;100.00;101497.81;5036096;28;20115;-82
2022/11/28 05:25:52;;;;;;;45.67;22.52;;;4.80;99.90;;;3.05;100.00;101492.63;4990345;28;20454;-81
2022/11/28 05:28:59;;;;;;;40.35;18.38;;;4.80;99.90;;;3.03;100.00;101486.56;4976792;28;20046;-81
2022/11/28 05:31:41;;;;;;;50.50;24.17;;;4.80;99.90;;;3.07;100.00;101498.69;4990184;28;21093;-81
2022/11/28 05:34:20;;;;;;;47.15;23.58;;;4.70;99.90;;;3.02;100.00;101495.25;5046381;23;20052;-82
2022/11/28 05:37:01;;;;;;;49.38;21.80;;;4.80;99.90;;;3.05;100.00;101497.84;5028711;28;20174;-82
2022/11/28 05:39:42;;;;;;;41.40;18.88;;;4.70;99.90;;;2.95;100.00;101490.91;5042982;28;20410;-82
2022/11/28 05:42:40;;;;;;;51.33;25.02;;;4.80;99.90;;;3.04;100.00;101496.09;5023873;28;20064;-83
2022/11/28 05:45:12;;;;;;;54.85;25.55;;;4.80;99.90;;;3.04;100.00;101490.88;5029940;28;20099;-83
2022/11/28 05:47:38;;;;;;;46.65;21.77;;;4.70;99.90;;;2.98;100.00;101495.25;5009576;28;20056;-82
2022/11/28 05:50:05;;;;;;;55.53;24.92;;;4.70;99.90;;;2.96;100.00;101499.56;5022121;28;20093;-81
2022/11/28 05:52:31;;;;;;;53.65;26.25;;;4.70;99.90;;;2.98;100.00;101493.53;5032707;23;20040;-82
2022/11/28 05:55:09;;;;;;;46.83;21.60;;;4.70;99.90;;;2.97;100.00;101483.97;5042689;28;20440;-82
2022/11/28 05:57:35;;;;;;;59.40;26.67;;;4.70;99.90;;;3.00;100.00;101489.19;5045033;28;20103;-83
2022/11/28 06:00:13;;;;;;;54.75;25.75;;;4.70;99.90;;;3.01;100.00;101492.66;5045580;28;20075;-82
2022/11/28 06:02:39;;;;;;;70.70;30.10;;;4.70;99.90;;;2.99;100.00;101491.78;5035008;28;20117;-81
2022/11/28 06:05:05;;;;;;;87.57;38.00;;;4.70;99.90;;;2.97;100.00;101493.53;5024231;28;20025;-81
2022/11/28 06:07:41;;;;;;;77.68;35.72;;;4.60;99.90;;;2.90;100.00;101484.88;5024002;28;20402;-82
2022/11/28 06:10:44;;;;;;;;;;;;;;;;;;;;;
2022/11/28 06:13:29;;;;;;;78.28;34.05;;;4.60;99.90;;;2.91;100.00;101493.53;5058338;23;20045;-83
2022/11/28 06:15:54;;;;;;;88.30;40.92;;;4.60;99.90;;;2.95;100.00;101492.66;5043541;28;20104;-82
2022/11/28 06:18:20;;;;;;;81.55;36.75;;;4.70;99.90;;;2.93;100.00;101482.25;5043605;28;20025;-81
2022/11/28 06:24:29;;;;;;;80.65;37.63;;;4.60;99.90;;;2.86;100.00;101493.56;5022391;28;20060;-82
2022/11/28 06:27:05;;;;;;;;;;;;;;;;;;;;;
2022/11/28 06:29:34;;;;;;;75.18;33.72;;;4.50;99.90;;;2.82;100.00;101476.22;5047807;28;20040;-82
2022/11/28 06:32:00;;;;;;;64.63;30.00;;;4.60;99.90;;;2.84;100.00;101490.09;5013485;28;20048;-81
2022/11/28 06:34:49;;;;;;;65.03;27.63;;;4.60;99.90;;;2.80;100.00;101472.75;5043831;28;20081;-82
2022/11/28 06:37:21;;;;;;;64.72;29.38;;;4.50;99.90;;;2.83;100.00;101468.41;5028744;28;20034;-83
2022/11/28 06:40:09;;;;;;;60.63;28.50;;;4.50;99.90;;;2.84;100.00;101470.13;5043091;28;20013;-83
2022/11/28 06:42:38;;;;;;;45.38;18.58;;;4.50;99.90;;;2.71;100.00;101483.19;5043207;28;20116;-82
2022/11/28 06:45:15;;;;;;;50.40;25.08;;;4.50;99.90;;;2.74;100.00;101478.81;5028519;28;20029;-82
2022/11/28 06:47:40;;;;;;;;;;;4.50;99.90;;;2.70;100.00;101484.94;5033864;28;20029;-80
2022/11/28 06:53:32;;;;;;;57.70;25.55;;;4.50;99.90;;;2.76;100.00;101481.44;5110670;22;20075;-81
2022/11/28 06:57:02;;;;;;;56.50;25.67;;;4.50;99.90;;;2.67;100.00;101483.19;5031567;28;20025;-81
2022/11/28 07:00:01;;;;;;;55.92;23.40;;;;;;;2.61;100.00;101477.13;4962648;28;20047;-81
2022/11/28 07:02:52;;;;;;;58.22;26.15;;;4.40;99.90;;;2.71;100.00;101475.38;4957487;28;20453;-81
2022/11/28 07:05:21;;;;;;;53.67;24.33;;;4.40;99.90;;;2.66;100.00;101475.41;4945830;28;20031;-82
2022/11/28 07:08:10;;;;;;;66.32;26.65;;;4.40;99.90;;;2.69;100.00;101484.91;4927850;28;20531;-82
2022/11/28 07:10:41;;;;;;;60.10;26.40;;;4.40;99.90;;;2.70;100.00;101478.84;5028655;28;20030;-81
2022/11/28 07:13:14;;;;;;;55.15;24.60;;;;;;;2.66;100.00;101475.41;5045984;22;20629;-82
2022/11/28 07:18:57;;;;;;;64.10;27.60;;;4.40;99.90;;;2.68;100.00;101478.88;5028392;28;20045;-81
2022/11/28 07:21:32;;;;;;;62.10;28.55;;;4.40;99.90;;;2.66;100.00;101481.47;5001046;28;20091;-82
2022/11/28 07:24:13;;;;;;;54.90;22.83;;;4.40;99.90;;;2.62;100.00;101471.94;5022839;28;20494;-82
2022/11/28 07:27:11;;;;;;;64.53;29.17;;;4.40;99.90;;;2.61;100.00;101475.41;5066952;28;20198;-81
2022/11/28 07:29:37;;;;;;;72.57;28.85;;;4.40;99.90;;;2.67;100.00;101466.72;5031760;28;20041;-82
2022/11/28 07:32:30;;;;;;;70.50;30.13;;;4.40;99.90;;;2.69;100.00;101459.78;5029646;28;20044;-82
2022/11/28 07:35:28;;;;;;;74.60;31.15;;;4.50;99.90;;;2.73;100.00;101476.25;5030949;28;20029;-82
2022/11/28 07:38:24;;;;;;;67.03;28.50;;;4.50;99.90;;;2.78;100.00;101470.16;5051022;28;20036;-81
2022/11/28 07:40:49;;;;;;;69.80;30.63;;;4.50;99.90;;;2.85;100.00;101482.28;5067697;28;20040;-82
2022/11/28 07:43:23;;;;;;;72.97;31.02;;;4.50;99.90;;;2.80;100.00;101470.16;5030741;28;20073;-82
2022/11/28 07:45:52;;;;;;;65.22;26.70;;;4.50;99.90;;;2.88;100.00;101476.22;5035537;28;20017;-81
2022/11/28 07:48:30;;;;;;;74.68;30.27;;;4.60;99.90;;;2.98;100.00;101480.53;5046368;28;20121;-82
2022/11/28 07:51:08;;;;;;;65.72;29.35;;;4.60;99.90;;;2.94;100.00;101483.09;5049619;28;20033;-82
2022/11/28 07:53:46;;;;;;;;;;;;;;;;;;;;;
2022/11/28 07:57:01;;;;;;;58.45;22.02;;;4.70;99.90;;;2.86;100.00;101484.00;5045154;28;20031;-80
2022/11/28 07:59:12;;;;;;;70.90;28.80;;;;;;;2.95;100.00;101482.25;5036341;28;20048;-82
2022/11/28 08:01:52;;;;;;;68.78;30.73;;;;;;;3.02;100.00;101481.34;5048237;28;20041;-82
2022/11/28 08:04:30;;;;;;;67.95;30.35;;;4.70;99.90;;;3.15;100.00;101487.38;5028238;28;20084;-82
2022/11/28 08:07:12;;;;;;;58.83;21.83;;;4.70;99.90;;;3.03;100.00;101467.50;5026007;28;20489;-81
2022/11/28 08:10:01;;;;;;;68.00;30.60;;;4.70;99.90;;;3.00;100.00;101460.56;5043360;28;20029;-81
2022/11/28 08:12:30;;;;;;;65.88;30.42;;;4.70;99.90;;;3.07;100.00;101471.81;5024447;28;20025;-82
2022/11/28 08:15:12;;;;;;;73.07;30.33;;;4.70;99.90;;;3.11;100.00;101478.75;5024801;28;20025;-82
2022/11/28 08:17:50;;;;;;;75.68;32.13;;;;;;;3.23;100.00;101485.63;5028796;28;20041;-82
2022/11/28 08:20:43;;;;;;;70.28;31.90;;;4.80;99.90;;;3.23;100.00;101486.47;5024934;28;20033;-80
2022/11/28 08:23:38;;;;;;;69.55;30.30;;;;;;;3.23;100.00;101483.88;5009117;28;20026;-82
2022/11/28 08:26:24;;;;;;;72.00;32.47;;;;;;;3.22;100.00;101484.75;5027044;28;20037;-81
2022/11/28 08:29:03;;;;;;;74.90;33.43;;;4.90;99.90;;;3.27;100.00;101485.59;5041121;28;20037;-82
2022/11/28 08:32:12;;;;;;;80.30;33.85;;;4.90;99.90;;;3.24;100.00;101470.00;5024711;28;20391;-81
2022/11/28 08:34:41;;;;;;;72.47;31.55;;;4.90;99.90;;;3.23;100.00;101468.25;5027161;28;20068;-82
2022/11/28 08:37:21;;;;;;;72.50;31.55;;;4.90;99.90;;;3.22;100.00;101469.16;5025603;28;20564;-83
2022/11/28 08:40:03;;;;;;;72.10;31.40;;;4.90;99.90;;;3.32;100.00;101461.28;5025026;28;20038;-83
2022/11/28 08:42:41;;;;;;;69.43;33.08;;;4.90;99.90;;;3.37;100.00;101467.31;5024419;28;20033;-82
2022/11/28 08:45:53;;;;;;;81.38;33.25;;;5.00;99.90;;;3.42;100.00;101458.63;5027829;28;20037;-82
2022/11/28 08:48:52;;;;;;;75.00;33.97;;;5.10;99.90;;;3.51;100.00;101459.47;5025764;28;20033;-82
2022/11/28 08:51:33;;;;;;;54.17;23.35;;;5.30;99.90;;;3.51;100.00;101452.50;5019313;28;20129;-80
2022/11/28 08:54:24;;;;;;;61.58;26.73;;;5.10;99.90;;;3.39;100.00;101452.56;5088752;22;20053;-81
2022/11/28 08:57:02;;;;;;;68.20;31.75;;;5.10;99.90;;;3.54;100.00;101441.19;5038426;28;20076;-81
2022/11/28 08:59:32;;;;;;;53.30;22.88;;;5.20;99.90;;;3.53;100.00;101439.47;5060288;28;20037;-81
2022/11/28 09:02:11;;;;;;;71.50;30.08;;;5.20;99.90;;;3.59;100.00;101436.84;5059807;28;20033;-82
2022/11/28 09:05:05;;;;;;;69.93;33.53;;;;;;;3.68;100.00;101439.38;5033757;28;20033;-82
2022/11/28 09:08:00;;;;;;;60.50;27.42;;;;;;;3.71;100.00;101452.38;5059978;28;20041;-81
2022/11/28 09:10:59;;;;;;;72.93;36.17;;;;;;;3.83;100.00;101462.72;5039621;28;20048;-82
2022/11/28 09:14:05;;;;;;;;;;;;;;;;;;;;;
2022/11/28 09:16:31;;;;;;;62.83;28.63;;;5.40;99.90;;;3.80;100.00;101467.97;4996486;28;20053;-81
2022/11/28 09:19:11;;;;;;;66.03;30.25;;;5.40;99.90;;;3.75;100.00;101456.69;4974306;28;20042;-81
2022/11/28 09:21:40;;;;;;;67.90;33.70;;;;;;;3.95;100.00;101463.50;4988978;28;20034;-84
2022/11/28 09:24:36;;;;;;;64.65;31.02;;;;;;;3.92;100.00;101468.75;5004174;28;20030;-83
2022/11/28 09:30:41;;;;;;;79.75;36.20;;;5.60;99.90;;;4.06;100.00;101446.91;4986428;28;20323;-84
2022/11/28 09:33:55;;;;;;;63.55;28.95;;;5.60;99.90;;;4.09;100.00;101452.09;4995310;28;20074;-85
2022/11/28 09:36:52;;;;;;;67.05;32.70;;;5.60;99.90;;;3.99;100.00;101452.19;4991999;28;20053;-84
2022/11/28 09:39:28;;;;;;;69.85;33.15;;;5.60;99.90;;;3.98;100.00;101442.66;4987430;28;20188;-85
2022/11/28 09:42:42;;;;;;;56.55;24.95;;;5.50;99.90;;;3.91;100.00;101441.84;5063649;28;20033;-84
2022/11/28 09:45:25;;;;;;;61.20;28.88;;;5.60;99.90;;;4.03;100.00;101436.50;5074910;28;20048;-83
2022/11/28 09:48:18;;;;;;;72.82;33.63;;;5.70;99.90;;;4.11;100.00;101431.25;5053292;28;20443;-84
2022/11/28 09:51:00;;;;;;;75.15;32.45;;;;;;;4.17;100.00;101435.53;5070801;28;20090;-85
2022/11/28 09:54:12;;;;;;;61.33;29.73;;;5.80;99.90;;;4.21;100.00;101429.41;5084045;28;20029;-85
2022/11/28 09:56:51;;;;;;;69.07;33.20;;;;;;;4.17;100.00;101431.19;5065000;28;20033;-84
2022/11/28 09:59:30;;;;;;;67.75;31.88;;;5.80;99.90;;;4.23;100.00;101428.53;5093022;28;20028;-84
2022/11/28 10:02:56;;;;;;;;;;;;;;;;;;;;;
2022/11/28 10:05:54;;;;;;;62.35;30.67;;;;;;;4.25;100.00;101423.28;5068609;28;20035;-83
2022/11/28 10:09:02;;;;;;;61.33;29.98;;;5.90;99.90;;;4.17;100.00;101418.16;5085066;28;20101;-83
2022/11/28 10:12:09;;;;;;;61.72;31.75;;;5.90;99.90;;;4.39;100.00;101420.56;5067826;28;20058;-86
2022/11/28 10:14:52;;;;;;;63.10;30.80;;;5.90;99.90;;;4.42;100.00;101423.13;5071894;28;20670;-83
2022/11/28 10:18:04;;;;;;;60.95;30.38;;;6.00;99.90;;;4.46;100.00;101420.47;5068584;28;20037;-83
2022/11/28 10:20:41;;;;;;;59.88;29.90;;;6.00;99.90;;;4.51;100.00;101420.41;5058675;28;20040;-84
2022/11/28 10:23:40;;;;;;;54.65;27.98;;;6.00;99.90;;;4.38;100.00;101416.22;5065863;28;20071;-83
2022/11/28 10:26:20;;;;;;;64.75;29.63;;;6.00;99.90;;;4.53;100.00;101410.84;5073305;28;20039;-83
2022/11/28 10:28:56;;;;;;;62.13;30.52;;;6.10;99.90;;;4.61;100.00;101410.78;5072101;28;20048;-83
2022/11/28 10:31:45;;;;;;;60.85;31.90;;;6.10;99.90;;;4.66;100.00;101409.81;5068740;28;20036;-84
2022/11/28 10:35:07;;;;;;;59.85;30.10;;;6.20;99.90;;;4.79;100.00;101420.13;5066369;23;20040;-83
2022/11/28 10:37:38;;;;;;;54.70;27.45;;;6.20;99.90;;;4.61;100.00;101413.38;5041561;28;20037;-82
2022/11/28 10:40:53;;;;;;;48.95;22.67;;;6.20;99.90;;;4.63;100.00;101414.22;5045637;28;20036;-84
2022/11/28 10:44:19;;;;;;;49.47;24.88;;;6.20;99.90;;;4.75;100.00;101410.59;5032625;28;20542;-84
2022/11/28 10:52:00;;;;;;;;;;;;;;;;;;;;;
2022/11/28 10:54:56;;;;;;;43.78;22.90;;;6.30;99.90;;;4.84;97.01;101397.47;5095217;23;20556;-83
2022/11/28 10:58:03;;;;;;;46.22;22.40;;;6.30;99.90;;;4.78;95.83;101394.94;5079997;28;20033;-84
2022/11/28 11:00:34;;;;;;;34.85;18.13;;;6.30;99.90;;;4.72;94.59;101391.50;5066644;28;20024;-84
2022/11/28 11:03:02;;;;;;;44.83;21.58;;;6.40;99.90;;;4.85;93.98;101383.53;5025447;28;20386;-84
2022/11/28 11:05:39;;;;;;;42.22;21.42;;;6.40;99.90;;;4.96;93.95;101392.06;5016749;28;20554;-84
2022/11/28 11:08:49;;;;;;;36.53;20.55;;;6.40;99.90;;;4.95;93.90;101387.75;5048069;28;20122;-85
2022/11/28 11:15:16;;;;;;;27.05;15.25;;;6.30;99.90;;;4.55;91.61;101380.38;4917547;29;20477;-83
2022/11/28 11:18:36;;;;;;;;;;;;;;;;;;;;;
2022/11/28 11:24:32;;;;;;;43.90;21.52;;;6.10;99.90;;;4.46;91.88;101372.66;4854907;29;20101;-82
2022/11/28 11:27:44;;;;;;;42.33;19.20;;;6.10;99.90;;;4.37;92.49;101367.56;4909586;29;20054;-83
2022/11/28 11:30:44;;;;;;;42.83;20.73;;;;;;;4.44;92.52;101377.03;4933525;29;20035;-83
2022/11/28 11:33:51;;;;;;;36.10;18.90;;;;;;;4.53;92.17;101384.75;5032279;22;20041;-85
2022/11/28 11:36:45;;;;;;;36.28;18.42;;;6.10;99.90;;;4.35;91.50;101378.00;5042059;28;20033;-84
2022/11/28 11:39:11;;;;;;;41.78;19.00;;;6.00;99.90;;;4.38;91.63;101374.50;5064846;22;20022;-81
2022/11/28 11:42:11;;;;;;;35.08;17.35;;;7.20;99.90;;;4.36;91.65;101378.84;5084911;28;20084;-81
2022/11/28 11:44:37;;;;;;;37.67;19.00;;;;;;;4.40;91.63;101389.25;5080931;28;20047;-82
2022/11/28 11:47:12;;;;;;;32.78;17.70;;;6.10;99.90;;;4.44;91.59;101382.25;5083471;28;20024;-80
2022/11/28 11:49:50;;;;;;;38.50;19.63;;;6.00;99.90;;;4.49;91.34;101390.88;5064482;28;20039;-81
2022/11/28 11:53:05;;;;;;;28.15;14.75;;;6.00;99.90;;;4.38;91.19;101380.56;5067097;28;20115;-82
2022/11/28 11:55:44;;;;;;;36.42;18.90;;;6.10;99.90;;;4.54;91.19;101388.25;5066474;28;20036;-82
2022/11/28 11:58:19;;;;;;;37.47;20.02;;;6.20;99.90;;;4.65;90.85;101392.44;5084114;28;20028;-81
2022/11/28 12:00:45;;;;;;;40.30;21.17;;;6.20;99.90;;;4.65;90.74;101397.66;5067283;28;20416;-82
2022/11/28 12:03:32;;;;;;;36.85;18.30;;;6.20;99.90;;;4.65;90.43;101400.28;5082050;28;20560;-80
2022/11/28 12:06:21;;;;;;;38.03;20.15;;;6.20;99.90;;;4.63;90.10;101396.81;5080045;28;20159;-82
2022/11/28 12:09:17;;;;;;;32.85;15.43;;;6.20;99.90;;;4.49;89.55;101393.50;5066073;28;20052;-82
2022/11/28 12:11:55;;;;;;;31.25;17.63;;;6.20;99.90;;;4.55;89.36;101393.44;5075296;28;20516;-82
2022/11/28 12:14:36;;;;;;;32.90;17.88;;;6.20;99.90;;;4.50;89.12;101390.88;5067048;28;20032;-81